Happy Valentine's Day! 

Flight Track Log - Related Links

Times and Time Zones

All times are in EDT time to prevent confusion due to time zone crossing. See the EJA221 flight status page for this flight to view local times or setup timezone preferences in your user account.


Time Position Orientation Groundspeed Altitude Reporting Facility
EDT Latitude Longitude Course Direction KTS MPH feet Rate Location/Type
Sun 08:06:47 PM 43.6667 -79.6500 227° Southwest 160 184 1,600  Level Toronto Center
Sun 08:07:47 PM 43.6333 -79.7000 227° Southwest 220 253 4,700 2,700 Climbing Toronto Center
Sun 08:08:47 PM 43.5500 -79.7500 204° Southwest 280 322 7,000 1,150 Climbing Toronto Center
Sun 08:09:47 PM 43.4833 -79.7667 190° South 280 322 7,000 150 Level Toronto Center
Sun 08:10:47 PM 43.4000 -79.8167 204° Southwest 280 322 7,300 1,900 Climbing Toronto Center
Sun 08:11:47 PM 43.3667 -79.8833 235° Southwest 280 322 10,800 2,750 Climbing Toronto Center
Sun 08:12:47 PM 43.3000 -80.0000 232° Southwest 330 380 12,800 2,200 Climbing Toronto Center
Sun 08:13:47 PM 43.2333 -80.0833 222° Southwest 360 414 15,200 2,400 Climbing Toronto Center
Sun 08:14:47 PM 43.1667 -80.2000 232° Southwest 370 426 17,600 2,200 Climbing Toronto Center
Sun 08:15:47 PM 43.0833 -80.3167 226° Southwest 390 449 19,600 1,989 Climbing Toronto Center
Sun 08:17:48 PM 42.9375 -80.5578 230° Southwest 403 464 23,600 2,022 Climbing Cleveland Center
Sun 08:18:48 PM 42.8583 -80.6739 227° Southwest 408 470 25,700 2,050 Climbing Cleveland Center
Sun 08:19:48 PM 42.7747 -80.7897 226° Southwest 419 482 27,700 2,050 Climbing Cleveland Center
Sun 08:20:48 PM 42.6953 -80.9025 226° Southwest 419 482 29,800 2,000 Climbing Cleveland Center
Sun 08:21:48 PM 42.6114 -81.0206 226° Southwest 424 488 31,700 2,200 Climbing Cleveland Center
Sun 08:22:48 PM 42.5278 -81.1353 225° Southwest 429 494 34,200 2,150 Climbing Cleveland Center
Sun 08:23:48 PM 42.4478 -81.2444 225° Southwest 423 487 36,000 900 Climbing Cleveland Center
Sun 08:24:48 PM 42.3681 -81.3531 225° Southwest 412 474 36,000  Level Cleveland Center
Sun 08:25:48 PM 42.2858 -81.4617 224° Southwest 407 468 36,000 50 Level Cleveland Center
Sun 08:26:48 PM 42.2058 -81.5725 226° Southwest 407 468 36,100 550 Climbing Cleveland Center
Sun 08:27:48 PM 42.1319 -81.6694 224° Southwest 407 468 37,100 1,200 Climbing Cleveland Center
Sun 08:29:48 PM 41.9628 -81.8956 225° Southwest 431 496 39,700 967 Climbing Cleveland Center
Sun 08:30:48 PM 41.8761 -82.0136 225° Southwest 437 503 40,000 150 Climbing Cleveland Center
Sun 08:31:48 PM 41.7806 -82.1314 223° Southwest 456 525 40,000  Level Cleveland Center
Sun 08:32:48 PM 41.6872 -82.2542 225° Southwest 461 531 40,000  Level Cleveland Center
Sun 08:33:48 PM 41.6119 -82.3994 235° Southwest 471 542 40,000  Level Cleveland Center
Sun 08:34:48 PM 41.5469 -82.5503 240° Southwest 471 542 40,000  Level Cleveland Center
Sun 08:35:48 PM 41.4839 -82.7036 241° Southwest 471 542 40,000  Level Cleveland Center
Sun 08:36:48 PM 41.4164 -82.8536 239° Southwest 477 549 40,000  Level Cleveland Center
Sun 08:37:48 PM 41.3461 -83.0228 241° Southwest 477 549 40,000  Level Cleveland Center
Sun 08:38:48 PM 41.2803 -83.1722 240° Southwest 477 549 40,000  Level Cleveland Center
Sun 08:40:33 PM 41.1717 -83.4178 240° Southwest 480 552 40,000  Level Indianapolis Center
Sun 08:41:35 PM 41.1050 -83.5708 240° Southwest 476 548 40,000  Level Indianapolis Center
Sun 08:42:36 PM 41.0333 -83.7306 239° Southwest 472 543 40,000  Level Indianapolis Center
Sun 08:43:38 PM 40.9650 -83.8844 240° Southwest 481 554 40,000  Level Indianapolis Center
Sun 08:44:40 PM 40.8981 -84.0378 240° Southwest 478 550 40,000  Level Indianapolis Center
Sun 08:45:41 PM 40.8183 -84.2147 239° Southwest 478 550 40,000  Level Indianapolis Center
Sun 08:46:43 PM 40.7508 -84.3639 239° Southwest 472 543 40,000  Level Indianapolis Center
Sun 08:47:44 PM 40.6831 -84.5142 239° Southwest 473 544 40,000  Level Indianapolis Center
Sun 08:48:46 PM 40.6150 -84.6636 239° Southwest 473 544 40,000  Level Indianapolis Center
Sun 08:49:47 PM 40.5464 -84.8131 239° Southwest 473 544 40,000  Level Indianapolis Center
Sun 08:50:49 PM 40.4778 -84.9633 239° Southwest 480 552 40,000  Level Indianapolis Center
Sun 08:51:51 PM 40.4086 -85.1128 239° Southwest 482 555 40,000  Level Indianapolis Center
Sun 08:52:52 PM 40.3386 -85.2608 238° Southwest 480 552 40,000  Level Indianapolis Center
Sun 08:53:54 PM 40.2708 -85.4081 239° Southwest 475 547 40,000  Level Indianapolis Center
Sun 08:54:55 PM 40.1878 -85.5831 238° Southwest 474 545 40,000  Level Indianapolis Center
Sun 08:55:57 PM 40.1192 -85.7306 239° Southwest 476 548 40,000  Level Indianapolis Center
Sun 08:56:58 PM 40.0494 -85.8775 238° Southwest 478 550 40,000  Level Indianapolis Center
Sun 08:58:00 PM 39.9806 -86.0231 238° Southwest 476 548 40,000  Level Indianapolis Center
Sun 08:59:01 PM 39.9128 -86.1661 238° Southwest 470 541 40,000  Level Indianapolis Center
Sun 09:00:03 PM 39.8406 -86.3156 238° Southwest 473 544 40,000  Level Indianapolis Center
Sun 09:01:04 PM 39.7956 -86.4936 252° West 476 548 40,000  Level Indianapolis Center
Sun 09:02:06 PM 39.7689 -86.6531 258° West 461 531 40,000 -49 Level Indianapolis Center
Sun 09:03:07 PM 39.7425 -86.8158 258° West 462 532 39,900 -537 Descending Indianapolis Center
Sun 09:04:09 PM 39.7158 -86.9808 258° West 467 537 38,900 -976 Descending Indianapolis Center
Sun 09:05:10 PM 39.6886 -87.1408 258° West 460 529 37,900 -1,024 Descending Indianapolis Center
Sun 09:06:12 PM 39.6614 -87.3050 258° West 465 535 36,800 -1,597 Descending Indianapolis Center
Sun 09:07:14 PM 39.6297 -87.4978 258° West 459 528 34,600 -2,000 Descending Indianapolis Center
Sun 09:08:15 PM 39.6014 -87.6594 257° West 462 532 32,700 -1,854 Descending Indianapolis Center
Sun 09:09:17 PM 39.5731 -87.8247 258° West 470 541 30,800 -1,854 Descending Indianapolis Center
Sun 09:10:18 PM 39.5433 -87.9931 257° West 478 550 28,900 -1,474 Descending Indianapolis Center
Sun 09:11:11 PM 39.5158 -88.1572 258° West 487 560 28,000 -474 Descending Kansas City Center
Sun 09:12:12 PM 39.4853 -88.3339 257° West 497 572 28,000 -537 Level Kansas City Center
Sun 09:13:14 PM 39.4539 -88.5075 257° West 497 572 26,900 -1,561 Descending Kansas City Center
Sun 09:14:15 PM 39.4231 -88.6781 257° West 508 585 24,800 -2,195 Descending Kansas City Center
Sun 09:15:17 PM 39.3850 -88.8772 256° West 505 581 22,400 -2,341 Descending Kansas City Center
Sun 09:16:18 PM 39.3553 -89.0478 257° West 494 568 20,000 -2,195 Descending Kansas City Center
Sun 09:17:20 PM 39.3256 -89.2081 257° West 472 543 17,900 -2,000 Descending Kansas City Center
Sun 09:18:21 PM 39.2961 -89.3650 256° West 457 526 15,900 -1,951 Descending Kansas City Center
Sun 09:19:23 PM 39.2686 -89.5167 257° West 443 510 13,900 -1,854 Descending Kansas City Center
Sun 09:20:24 PM 39.2397 -89.6647 256° West 434 499 12,100 -927 Descending Kansas City Center
Sun 09:21:26 PM 39.1997 -89.8044 250° West 425 489 12,000 -98 Descending Kansas City Center
Sun 09:22:27 PM 39.1208 -89.9478 235° Southwest 415 478 11,900 -244 Descending Kansas City Center
Sun 09:23:29 PM 39.0544 -90.0239 222° Southwest 327 376 11,500 -1,171 Descending Kansas City Center
Sun 09:24:30 PM 38.9889 -90.0942 220° Southwest 310 357 9,500 -1,220 Descending Kansas City Center
Sun 09:25:32 PM 38.9281 -90.1631 221° Southwest 296 341 9,000 -1,073 Descending Kansas City Center
Sun 09:26:33 PM 38.8694 -90.2300 222° Southwest 287 330 7,300 -1,463 Descending Kansas City Center
Sun 09:27:35 PM 38.8122 -90.2947 221° Southwest 280 322 6,000 -1,561 Descending Kansas City Center
Sun 09:28:36 PM 38.7572 -90.3567 221° Southwest 271 312 4,100 -1,268 Descending Kansas City Center
Sun 09:29:38 PM 38.7119 -90.4303 232° Southwest 244 281 3,400 -732 Descending Kansas City Center
Sun 09:30:39 PM 38.6858 -90.4869 239° Southwest 215 247 2,600 -780 Descending Kansas City Center
Sun 09:31:41 PM 38.6756 -90.5517 259° West 200 230 1,800 -683 Descending Kansas City Center
Sun 09:32:42 PM 38.6683 -90.5919 257° West 152 175 1,200 -634 Descending Kansas City Center
Sun 09:33:44 PM 38.6617 -90.6369 259° West 133 153 500 -677 Descending Kansas City Center
Sun 09:35:00 PM 38.6500 -90.6500 218° Southwest  Level FlightAware Approximate
Sun 09:42:00 PM 38.6621 -90.6521 218° Southwest  Level Estimated

Login

Don't have an account? Register now (free) for customized features, flight alerts, and more!